Time;durP1;ratioP1;P1;durP2;ratioP2;P2;SDS_P1;SDS_P2;PMS_P1;PMS_P2;Temp;Humidity;BMP_temperature;BMP_pressure;BME280_temperature;BME280_humidity;BME280_pressure;Samples;Min_cycle;Max_cycle;Signal;HPM_P1;HPM_P2
2024/01/30 00:00:26;;;;;;;13.67;7.80;;;4.80;99.90;;;;;;5055806;28;20055;-44
2024/01/30 00:02:51;;;;;;;16.20;8.37;;;4.80;99.90;;;;;;5073653;28;20098;-45
2024/01/30 00:05:17;;;;;;;14.13;8.33;;;4.70;99.90;;;;;;5073656;28;20045;-45
2024/01/30 00:07:43;;;;;;;14.10;8.27;;;4.70;99.90;;;;;;5055916;28;20044;-44
2024/01/30 00:10:08;;;;;;;15.57;9.23;;;4.70;99.90;;;;;;5073468;28;20131;-45
2024/01/30 00:12:34;;;;;;;16.30;9.13;;;4.60;99.90;;;;;;5073514;28;20043;-44
2024/01/30 00:15:00;;;;;;;13.63;8.73;;;4.60;99.90;;;;;;5073399;28;20434;-45
2024/01/30 00:17:26;;;;;;;14.60;8.00;;;4.60;99.90;;;;;;5073463;28;20052;-45
2024/01/30 00:19:51;;;;;;;15.70;9.30;;;4.60;99.90;;;;;;5073584;28;20083;-44
2024/01/30 00:22:17;;;;;;;14.50;8.57;;;4.60;99.90;;;;;;5055944;28;20051;-44
2024/01/30 00:24:43;;;;;;;14.90;8.40;;;4.70;99.90;;;;;;5073405;28;20048;-44
2024/01/30 00:27:08;;;;;;;16.03;9.43;;;4.70;99.90;;;;;;5039370;28;20487;-45
2024/01/30 00:29:34;;;;;;;15.83;9.23;;;4.70;99.90;;;;;;5055649;28;20086;-44
2024/01/30 00:32:00;;;;;;;16.27;9.30;;;4.70;99.90;;;;;;5073136;28;20464;-44
2024/01/30 00:34:26;;;;;;;15.53;9.43;;;4.70;99.90;;;;;;5073200;28;20040;-44
2024/01/30 00:36:51;;;;;;;16.70;9.27;;;4.70;99.90;;;;;;5073362;28;20397;-44
2024/01/30 00:39:19;;;;;;;16.10;9.60;;;4.70;99.90;;;;;;5073249;28;20040;-45
2024/01/30 00:41:45;;;;;;;13.65;8.70;;;4.70;99.90;;;;;;5073104;28;20617;-44
2024/01/30 00:44:10;;;;;;;15.83;9.93;;;4.70;99.90;;;;;;5073108;28;20083;-44
2024/01/30 00:46:36;;;;;;;15.97;10.13;;;4.70;99.90;;;;;;5073037;28;20048;-44
2024/01/30 00:49:02;;;;;;;17.93;9.47;;;4.70;99.90;;;;;;5073223;28;20053;-44
2024/01/30 00:51:29;;;;;;;15.83;9.70;;;4.70;99.90;;;;;;5073317;28;20078;-44
2024/01/30 00:53:55;;;;;;;15.52;9.38;;;4.70;99.90;;;;;;5073123;28;20056;-45
2024/01/30 00:56:21;;;;;;;16.13;9.20;;;4.70;99.90;;;;;;5073040;28;20039;-44
2024/01/30 00:58:46;;;;;;;16.30;9.93;;;4.70;99.90;;;;;;5073120;28;20052;-44
2024/01/30 01:01:12;;;;;;;16.13;9.80;;;4.70;99.90;;;;;;5073478;28;20044;-46
2024/01/30 01:03:40;;;;;;;16.83;9.82;;;4.60;99.90;;;;;;5077284;28;20056;-44
2024/01/30 01:06:06;;;;;;;21.45;10.02;;;4.60;99.90;;;;;;5059151;28;20135;-44
2024/01/30 01:08:31;;;;;;;16.33;9.77;;;4.70;99.90;;;;;;5076789;28;20132;-44
2024/01/30 01:10:57;;;;;;;18.17;9.83;;;4.70;99.90;;;;;;5076859;28;20119;-44
2024/01/30 01:13:23;;;;;;;17.17;9.87;;;4.70;99.90;;;;;;5076564;28;20052;-45
2024/01/30 01:15:48;;;;;;;15.13;9.27;;;4.70;99.90;;;;;;5076492;28;20060;-44
2024/01/30 01:18:14;;;;;;;18.60;10.57;;;4.80;99.90;;;;;;5076414;28;20040;-44
2024/01/30 01:20:40;;;;;;;16.50;9.47;;;4.70;99.90;;;;;;5076621;28;20040;-44
2024/01/30 01:23:05;;;;;;;14.63;9.33;;;4.80;99.90;;;;;;5076583;28;20045;-45
2024/01/30 01:25:31;;;;;;;13.00;8.27;;;4.80;99.90;;;;;;5076440;28;20071;-44
2024/01/30 01:27:57;;;;;;;15.90;9.33;;;4.70;99.90;;;;;;5076309;28;20131;-44
2024/01/30 01:30:22;;;;;;;16.87;9.63;;;4.80;99.90;;;;;;5076184;28;20052;-44
2024/01/30 01:32:54;;;;;;;15.60;9.30;;;4.80;99.90;;;;;;5076451;28;20078;-44
2024/01/30 01:35:22;;;;;;;13.50;8.52;;;4.80;99.90;;;;;;5058668;28;20105;-45
2024/01/30 01:37:54;;;;;;;16.23;9.13;;;4.70;99.90;;;;;;5076235;28;20101;-44
2024/01/30 01:40:21;;;;;;;14.60;9.02;;;4.60;99.90;;;;;;5059353;28;20088;-44
2024/01/30 01:42:48;;;;;;;15.95;9.65;;;4.60;99.90;;;;;;5076003;28;20141;-44
2024/01/30 01:45:14;;;;;;;18.05;9.98;;;4.60;99.90;;;;;;5076446;28;20479;-44
2024/01/30 01:47:39;;;;;;;15.07;9.17;;;4.60;99.90;;;;;;5076122;28;20047;-45
2024/01/30 01:50:05;;;;;;;17.50;9.63;;;4.50;99.90;;;;;;5076088;28;20479;-45
2024/01/30 01:52:32;;;;;;;17.03;9.63;;;4.60;99.90;;;;;;5076058;28;20040;-44
2024/01/30 01:54:58;;;;;;;16.95;10.20;;;4.60;99.90;;;;;;5075809;28;20044;-45
2024/01/30 01:57:23;;;;;;;15.67;9.67;;;4.70;99.90;;;;;;5075796;28;20048;-48
2024/01/30 01:59:49;;;;;;;17.50;9.93;;;4.70;99.90;;;;;;5058267;28;20422;-47
2024/01/30 02:02:17;;;;;;;18.90;9.97;;;4.60;99.90;;;;;;5058681;28;20095;-47
2024/01/30 02:04:43;;;;;;;16.08;8.88;;;4.60;99.90;;;;;;5057828;28;20045;-45
2024/01/30 02:07:09;;;;;;;16.90;10.03;;;4.60;99.90;;;;;;5075686;28;20052;-45
2024/01/30 02:09:35;;;;;;;19.35;9.98;;;4.60;99.90;;;;;;5075656;28;20040;-48
2024/01/30 02:12:01;;;;;;;19.13;10.57;;;4.60;99.90;;;;;;5075424;28;20045;-46
2024/01/30 02:14:26;;;;;;;16.73;10.10;;;4.60;99.90;;;;;;5075572;28;20048;-48
2024/01/30 02:16:52;;;;;;;21.33;9.83;;;4.70;99.90;;;;;;5076183;28;20480;-48
2024/01/30 02:19:18;;;;;;;16.37;9.63;;;4.70;99.90;;;;;;5075547;28;20053;-48
2024/01/30 02:21:45;;;;;;;18.50;10.00;;;4.70;99.90;;;;;;5075464;28;20050;-47
2024/01/30 02:24:10;;;;;;;18.25;10.77;;;4.70;99.90;;;;;;5075273;28;20055;-45
2024/01/30 02:26:36;;;;;;;18.03;9.93;;;4.70;99.90;;;;;;5075212;28;20041;-48
2024/01/30 02:29:01;;;;;;;17.87;10.13;;;4.80;99.90;;;;;;5057467;28;20047;-44
2024/01/30 02:31:27;;;;;;;17.23;11.37;;;4.70;99.90;;;;;;5075304;28;20054;-45
2024/01/30 02:33:53;;;;;;;18.83;10.73;;;4.80;99.90;;;;;;5075179;28;20487;-46
2024/01/30 02:36:18;;;;;;;16.90;10.33;;;4.80;99.90;;;;;;5075033;28;20044;-45
2024/01/30 02:38:46;;;;;;;17.23;10.40;;;4.80;99.90;;;;;;5075181;28;20433;-45
2024/01/30 02:41:12;;;;;;;16.58;10.10;;;4.80;99.90;;;;;;5057309;28;20123;-44
2024/01/30 02:43:37;;;;;;;20.73;11.27;;;4.90;99.90;;;;;;5075086;28;20178;-44
2024/01/30 02:46:03;;;;;;;17.63;10.23;;;4.90;99.90;;;;;;5075314;28;20080;-44
2024/01/30 02:48:29;;;;;;;17.90;10.23;;;4.90;99.90;;;;;;5074961;28;20044;-44
2024/01/30 02:50:54;;;;;;;17.07;9.57;;;4.90;99.90;;;;;;5075122;28;20052;-44
2024/01/30 02:53:20;;;;;;;15.23;9.77;;;4.90;99.90;;;;;;5074743;28;20059;-44
2024/01/30 02:55:45;;;;;;;15.60;9.50;;;4.90;99.90;;;;;;5074591;28;20040;-45
2024/01/30 02:58:11;;;;;;;18.17;9.63;;;4.90;99.90;;;;;;5075037;28;20048;-44
2024/01/30 03:00:37;;;;;;;15.33;9.50;;;4.90;99.90;;;;;;5074705;28;20060;-44
2024/01/30 03:03:03;;;;;;;18.27;10.10;;;4.90;99.90;;;;;;5057097;28;20080;-45
2024/01/30 03:05:28;;;;;;;15.13;9.70;;;4.90;99.90;;;;;;5074598;28;20044;-44
2024/01/30 03:07:54;;;;;;;15.67;9.87;;;4.80;99.90;;;;;;5074391;28;20094;-44
2024/01/30 03:10:20;;;;;;;17.87;10.37;;;4.90;99.90;;;;;;5056865;28;20059;-44
2024/01/30 03:12:45;;;;;;;15.73;9.47;;;4.80;99.90;;;;;;5074544;28;20048;-44
2024/01/30 03:15:11;;;;;;;13.57;9.23;;;4.80;99.90;;;;;;5074185;28;20062;-44
2024/01/30 03:17:37;;;;;;;15.17;9.23;;;4.90;99.90;;;;;;5074396;28;20045;-44
2024/01/30 03:20:03;;;;;;;17.57;10.00;;;4.90;99.90;;;;;;5074224;28;20564;-44
2024/01/30 03:22:29;;;;;;;;;;;4.90;99.90;;;;;;5074670;28;20411;-44
2024/01/30 03:24:55;;;;;;;17.60;9.65;;;5.00;99.90;;;;;;5073520;28;19920;-44
2024/01/30 03:27:20;;;;;;;14.83;8.47;;;5.00;99.90;;;;;;5074025;28;20475;-45
2024/01/30 03:29:46;;;;;;;17.23;9.97;;;5.00;99.90;;;;;;5056501;28;20040;-44
2024/01/30 03:32:12;;;;;;;16.47;9.67;;;5.00;99.90;;;;;;5074172;28;20050;-44
2024/01/30 03:34:37;;;;;;;14.43;8.70;;;5.10;99.90;;;;;;5074067;28;20036;-44
2024/01/30 03:37:03;;;;;;;15.07;8.93;;;5.10;99.90;;;;;;5074209;28;20048;-44
2024/01/30 03:39:28;;;;;;;19.30;9.80;;;5.20;99.90;;;;;;5056166;28;20040;-44
2024/01/30 03:41:54;;;;;;;15.90;9.37;;;5.20;99.90;;;;;;5073853;28;20057;-45
2024/01/30 03:44:20;;;;;;;15.77;9.13;;;5.20;99.90;;;;;;5073881;28;20057;-44
2024/01/30 03:46:46;;;;;;;14.40;9.27;;;5.20;99.90;;;;;;5056327;28;20131;-44
2024/01/30 03:49:11;;;;;;;17.48;9.93;;;5.20;99.90;;;;;;5073836;28;20479;-44
2024/01/30 03:51:37;;;;;;;17.43;9.70;;;5.10;99.90;;;;;;5056097;28;20049;-44
2024/01/30 03:54:03;;;;;;;15.60;9.33;;;5.20;99.90;;;;;;5056097;28;20047;-44
2024/01/30 03:56:28;;;;;;;15.20;8.80;;;5.20;99.90;;;;;;5073465;28;20044;-44
2024/01/30 03:58:55;;;;;;;18.10;10.10;;;5.20;99.90;;;;;;5073806;28;20055;-44
2024/01/30 04:01:21;;;;;;;16.85;9.65;;;5.20;99.90;;;;;;5055962;28;20377;-44
2024/01/30 04:03:47;;;;;;;16.63;9.50;;;5.20;99.90;;;;;;5073917;28;20056;-44
2024/01/30 04:06:12;;;;;;;16.13;9.23;;;5.20;99.90;;;;;;5073506;28;20495;-45
2024/01/30 04:08:38;;;;;;;15.40;9.50;;;5.20;99.90;;;;;;5073399;28;20052;-44
2024/01/30 04:11:08;;;;;;;17.93;9.00;;;5.20;99.90;;;;;;5073413;28;20055;-44
2024/01/30 04:13:34;;;;;;;15.07;9.35;;;5.30;99.90;;;;;;5073802;28;20399;-44
2024/01/30 04:16:03;;;;;;;16.70;9.50;;;5.30;99.90;;;;;;5073578;28;20060;-44
2024/01/30 04:18:29;;;;;;;17.98;9.48;;;5.30;99.90;;;;;;5073522;28;20064;-44
2024/01/30 04:20:55;;;;;;;16.17;9.37;;;5.40;99.90;;;;;;5073549;28;20044;-44
2024/01/30 04:23:21;;;;;;;16.90;9.10;;;5.40;99.90;;;;;;5073301;28;20087;-44
2024/01/30 04:25:46;;;;;;;15.63;9.33;;;5.50;99.90;;;;;;5073871;28;20040;-44
2024/01/30 04:28:12;;;;;;;15.10;9.63;;;5.50;99.90;;;;;;5073529;28;20040;-44
2024/01/30 04:30:38;;;;;;;15.27;8.90;;;5.50;99.90;;;;;;5073522;28;20048;-44
2024/01/30 04:33:04;;;;;;;17.58;10.25;;;5.60;99.90;;;;;;5073413;28;20047;-44
2024/01/30 04:35:30;;;;;;;15.97;9.20;;;5.60;99.90;;;;;;5073271;28;20044;-44
2024/01/30 04:37:55;;;;;;;16.43;9.60;;;5.70;99.90;;;;;;5076677;28;20486;-44
2024/01/30 04:40:21;;;;;;;20.77;10.43;;;5.70;99.90;;;;;;5059571;28;20055;-44
2024/01/30 04:42:47;;;;;;;15.53;8.87;;;5.80;99.90;;;;;;5077795;28;20162;-45
2024/01/30 04:45:13;;;;;;;17.17;9.97;;;5.80;99.90;;;;;;5077345;28;20127;-48
2024/01/30 04:47:38;;;;;;;14.73;8.83;;;5.90;99.90;;;;;;5059527;28;20044;-47
2024/01/30 04:50:08;;;;;;;15.20;8.77;;;5.90;99.90;;;;;;5077153;28;20532;-48
2024/01/30 04:52:34;;;;;;;17.83;9.52;;;5.90;99.90;;;;;;5076919;28;20620;-46
2024/01/30 04:55:00;;;;;;;15.10;8.60;;;5.90;99.90;;;;;;5077051;28;20136;-47
2024/01/30 04:57:26;;;;;;;14.80;9.27;;;6.00;99.90;;;;;;5077073;28;20123;-45
2024/01/30 04:59:51;;;;;;;16.77;8.97;;;5.90;99.90;;;;;;5077011;28;20045;-47
2024/01/30 05:02:17;;;;;;;16.13;8.97;;;6.00;99.90;;;;;;5059408;28;20047;-47
2024/01/30 05:04:43;;;;;;;14.73;8.47;;;6.00;99.90;;;;;;5058985;28;20040;-47
2024/01/30 05:07:08;;;;;;;19.03;9.63;;;6.00;99.90;;;;;;5076778;28;20075;-45
2024/01/30 05:09:34;;;;;;;16.17;9.00;;;6.00;99.90;;;;;;5076764;28;20407;-45
2024/01/30 05:12:00;;;;;;;15.83;8.67;;;6.00;99.90;;;;;;5076913;28;20505;-45
2024/01/30 05:14:25;;;;;;;13.27;7.87;;;6.10;99.90;;;;;;5076341;28;20045;-46
2024/01/30 05:16:51;;;;;;;14.20;8.70;;;6.10;99.90;;;;;;5076764;28;20045;-45
2024/01/30 05:19:17;;;;;;;14.83;8.60;;;6.10;99.90;;;;;;5076684;28;20479;-45
2024/01/30 05:21:43;;;;;;;16.13;9.10;;;6.20;99.90;;;;;;5058961;28;20067;-45
2024/01/30 05:24:10;;;;;;;14.30;8.00;;;6.30;99.90;;;;;;5076301;28;20287;-45
2024/01/30 05:26:35;;;;;;;;;;;6.20;99.90;;;;;;5059276;28;20084;-45
2024/01/30 05:29:01;;;;;;;15.18;8.43;;;6.30;99.90;;;;;;5076497;28;19978;-46
2024/01/30 05:31:27;;;;;;;16.50;9.27;;;6.20;99.90;;;;;;5058644;28;20051;-45
2024/01/30 05:33:52;;;;;;;14.23;8.63;;;6.20;99.90;;;;;;5076329;28;20082;-45
2024/01/30 05:36:18;;;;;;;16.40;8.90;;;6.30;99.90;;;;;;5058333;28;20391;-45
2024/01/30 05:38:44;;;;;;;16.97;8.73;;;6.30;99.90;;;;;;5076338;28;20131;-45
2024/01/30 05:41:09;;;;;;;14.87;8.23;;;6.40;99.90;;;;;;5076345;28;20048;-46
2024/01/30 05:43:35;;;;;;;17.13;8.03;;;6.40;99.90;;;;;;5076249;28;20047;-45
2024/01/30 05:46:01;;;;;;;14.13;8.27;;;6.40;99.90;;;;;;5075927;28;20102;-45
2024/01/30 05:48:26;;;;;;;14.67;8.20;;;6.40;99.90;;;;;;5058180;28;20091;-46
2024/01/30 05:50:52;;;;;;;14.13;8.57;;;6.50;99.90;;;;;;5075981;28;20131;-46
2024/01/30 05:53:17;;;;;;;16.37;8.97;;;6.50;99.90;;;;;;5075776;28;20090;-45
2024/01/30 05:55:44;;;;;;;14.97;8.07;;;6.50;99.90;;;;;;5075886;28;20048;-45
2024/01/30 05:58:09;;;;;;;14.93;8.27;;;6.50;99.90;;;;;;5075943;28;20044;-45
2024/01/30 06:00:35;;;;;;;14.53;8.03;;;6.50;99.90;;;;;;5075928;28;20131;-45
2024/01/30 06:03:01;;;;;;;13.83;7.80;;;6.50;99.90;;;;;;5075738;28;20048;-45
2024/01/30 06:05:26;;;;;;;16.10;7.13;;;6.50;99.90;;;;;;5075695;28;20051;-45
2024/01/30 06:07:52;;;;;;;15.13;8.20;;;6.50;99.90;;;;;;5057730;28;20483;-45
2024/01/30 06:10:17;;;;;;;15.47;8.17;;;6.50;99.90;;;;;;5075630;28;20483;-45
2024/01/30 06:12:43;;;;;;;16.60;7.57;;;6.50;99.90;;;;;;5075672;28;20392;-45
2024/01/30 06:15:09;;;;;;;14.80;7.47;;;6.50;99.90;;;;;;5075367;28;20380;-45
2024/01/30 06:17:35;;;;;;;13.90;8.00;;;6.50;99.90;;;;;;5075573;28;20407;-46
2024/01/30 06:20:01;;;;;;;14.67;7.97;;;6.50;99.90;;;;;;5075456;28;20052;-46
2024/01/30 06:22:26;;;;;;;17.17;8.40;;;6.60;99.90;;;;;;5075222;28;20051;-45
2024/01/30 06:24:52;;;;;;;14.17;8.10;;;6.60;99.90;;;;;;5057952;28;20055;-45
2024/01/30 06:27:18;;;;;;;15.50;8.00;;;6.60;99.90;;;;;;5075390;28;20057;-45
2024/01/30 06:29:44;;;;;;;13.50;7.70;;;6.70;99.90;;;;;;5075054;28;20043;-45
2024/01/30 06:32:09;;;;;;;14.93;8.87;;;6.70;99.90;;;;;;5075328;28;20095;-45
2024/01/30 06:34:35;;;;;;;16.63;7.60;;;6.70;99.90;;;;;;5075135;28;20040;-45
2024/01/30 06:37:01;;;;;;;16.40;8.40;;;6.70;99.90;;;;;;5075019;28;20048;-45
2024/01/30 06:39:27;;;;;;;15.37;8.27;;;6.80;99.90;;;;;;5075411;28;20099;-45
2024/01/30 06:41:52;;;;;;;15.10;8.27;;;6.80;99.90;;;;;;5075214;28;20094;-45
2024/01/30 06:44:18;;;;;;;13.73;7.60;;;6.80;99.90;;;;;;5075184;28;20048;-45
2024/01/30 06:46:44;;;;;;;14.20;7.53;;;6.80;99.90;;;;;;5056991;28;20098;-45
2024/01/30 06:49:09;;;;;;;12.73;7.37;;;6.80;99.90;;;;;;5074743;28;20044;-45
2024/01/30 06:51:35;;;;;;;14.77;7.83;;;6.80;99.90;;;;;;5074677;28;20044;-45
2024/01/30 06:54:01;;;;;;;14.87;7.70;;;6.90;99.90;;;;;;5074851;28;20131;-44
2024/01/30 06:56:26;;;;;;;13.13;8.03;;;6.80;99.90;;;;;;5074757;28;20037;-45
2024/01/30 06:58:52;;;;;;;14.23;7.50;;;6.90;99.90;;;;;;5073998;28;20040;-44
2024/01/30 07:01:18;;;;;;;15.83;8.30;;;6.90;99.90;;;;;;5074560;28;20498;-44
2024/01/30 07:03:43;;;;;;;12.77;7.30;;;6.90;99.90;;;;;;5074746;28;20531;-44
2024/01/30 07:06:12;;;;;;;14.00;6.87;;;6.90;99.90;;;;;;5056780;28;20396;-45
2024/01/30 07:08:38;;;;;;;15.77;7.63;;;7.00;99.90;;;;;;5074520;28;20123;-44
2024/01/30 07:11:07;;;;;;;14.82;7.68;;;7.00;99.90;;;;;;5074562;28;20048;-44
2024/01/30 07:13:34;;;;;;;13.50;7.57;;;7.00;99.90;;;;;;5056727;28;20153;-44
2024/01/30 07:16:00;;;;;;;11.60;6.40;;;7.00;99.90;;;;;;5074398;28;20051;-44
2024/01/30 07:18:25;;;;;;;14.13;7.73;;;7.00;99.90;;;;;;5074255;28;20041;-45
2024/01/30 07:20:51;;;;;;;13.67;7.03;;;7.00;99.90;;;;;;5074051;28;20090;-44
2024/01/30 07:23:17;;;;;;;12.57;7.10;;;7.10;99.90;;;;;;5074502;28;20098;-44
2024/01/30 07:25:48;;;;;;;14.15;6.88;;;7.10;99.90;;;;;;5074230;28;20044;-44
2024/01/30 07:28:16;;;;;;;17.88;8.13;;;7.10;99.90;;;;;;5056442;28;20462;-46
2024/01/30 07:30:42;;;;;;;14.15;7.03;;;7.10;99.90;;;;;;5073995;28;20049;-45
2024/01/30 07:33:08;;;;;;;13.20;6.85;;;7.10;99.90;;;;;;5056402;28;20044;-45
2024/01/30 07:35:34;;;;;;;14.60;7.50;;;7.10;99.90;;;;;;5074498;28;20044;-49
2024/01/30 07:38:00;;;;;;;15.25;7.50;;;7.10;99.90;;;;;;5074046;28;20056;-45
2024/01/30 07:40:26;;;;;;;16.67;7.50;;;7.20;99.90;;;;;;5073984;28;20044;-47
2024/01/30 07:42:54;;;;;;;12.27;7.37;;;7.20;99.90;;;;;;5074122;28;20040;-45
2024/01/30 07:45:24;;;;;;;14.60;7.72;;;7.20;99.90;;;;;;5073798;28;20056;-47
2024/01/30 07:47:50;;;;;;;12.43;7.50;;;7.20;99.90;;;;;;5056743;28;20048;-47
2024/01/30 07:50:16;;;;;;;15.47;8.00;;;7.20;99.90;;;;;;5073921;28;20110;-45
2024/01/30 07:52:45;;;;;;;16.07;7.37;;;7.20;99.90;;;;;;5073835;28;20286;-46
2024/01/30 07:55:12;;;;;;;13.80;7.43;;;7.30;99.90;;;;;;5073577;28;20044;-45
2024/01/30 07:57:41;;;;;;;13.50;7.25;;;7.20;99.90;;;;;;5073661;28;20052;-45
2024/01/30 08:00:07;;;;;;;13.52;6.78;;;7.20;99.90;;;;;;5073635;28;20407;-47
2024/01/30 08:02:33;;;;;;;13.67;7.80;;;7.30;99.90;;;;;;5055776;28;20053;-46
2024/01/30 08:04:58;;;;;;;11.20;6.63;;;7.30;99.90;;;;;;5074186;28;20051;-45
2024/01/30 08:07:24;;;;;;;15.93;7.43;;;7.30;99.90;;;;;;5073632;28;20045;-44
2024/01/30 08:09:50;;;;;;;13.53;7.23;;;7.30;99.90;;;;;;5073849;28;20434;-45
2024/01/30 08:12:16;;;;;;;15.30;7.57;;;7.30;99.90;;;;;;5073512;28;20044;-45
2024/01/30 08:14:41;;;;;;;14.27;6.83;;;7.40;99.90;;;;;;5055466;28;20056;-45
2024/01/30 08:17:07;;;;;;;12.37;7.23;;;7.40;99.90;;;;;;5073570;28;20102;-44
2024/01/30 08:19:33;;;;;;;11.27;6.90;;;7.40;99.90;;;;;;5073634;28;20041;-44
2024/01/30 08:21:59;;;;;;;13.30;6.47;;;7.40;99.90;;;;;;5039356;28;20056;-44
2024/01/30 08:24:25;;;;;;;12.97;6.80;;;7.40;99.90;;;;;;5073543;28;20143;-44
2024/01/30 08:26:50;;;;;;;13.77;6.90;;;7.40;99.90;;;;;;5073426;28;20043;-45
2024/01/30 08:29:16;;;;;;;15.00;7.30;;;7.50;99.90;;;;;;5073403;28;20123;-44
2024/01/30 08:31:42;;;;;;;13.33;7.03;;;7.40;99.90;;;;;;5073415;28;20063;-44
2024/01/30 08:34:07;;;;;;;12.60;6.97;;;7.50;99.90;;;;;;5073762;28;20055;-45
2024/01/30 08:36:33;;;;;;;14.57;7.20;;;7.50;99.90;;;;;;5073357;28;20045;-45
2024/01/30 08:38:59;;;;;;;13.17;7.07;;;7.50;99.90;;;;;;5073384;28;20060;-44
2024/01/30 08:41:24;;;;;;;12.57;6.70;;;7.50;99.90;;;;;;5073518;28;20047;-44
2024/01/30 08:43:50;;;;;;;12.50;6.83;;;7.50;99.90;;;;;;5055638;28;20049;-44
2024/01/30 08:46:19;;;;;;;12.77;7.10;;;7.50;99.90;;;;;;5073264;28;20418;-45
2024/01/30 08:48:45;;;;;;;15.07;7.25;;;7.60;99.90;;;;;;5055693;28;20399;-47
2024/01/30 08:51:11;;;;;;;13.02;7.10;;;7.70;99.90;;;;;;5055527;28;20049;-45
2024/01/30 08:53:37;;;;;;;13.37;6.83;;;7.70;99.90;;;;;;5073209;28;20082;-44
2024/01/30 08:56:03;;;;;;;13.07;7.03;;;7.70;99.90;;;;;;5073179;28;20092;-44
2024/01/30 08:58:29;;;;;;;12.80;6.05;;;7.70;99.90;;;;;;5055489;28;20110;-45
2024/01/30 09:00:55;;;;;;;12.10;6.67;;;7.80;99.90;;;;;;5072931;28;20049;-45
2024/01/30 09:03:21;;;;;;;13.90;7.00;;;7.80;99.90;;;;;;5055540;28;20057;-44
2024/01/30 09:05:46;;;;;;;12.10;7.13;;;7.90;99.90;;;;;;5073207;28;20072;-44
2024/01/30 09:08:12;;;;;;;12.50;6.67;;;7.90;99.90;;;;;;5073113;28;20105;-45
2024/01/30 09:10:38;;;;;;;13.60;6.80;;;7.90;99.90;;;;;;5073227;28;20051;-45
2024/01/30 09:13:03;;;;;;;13.27;6.43;;;8.00;99.90;;;;;;5073075;28;20044;-45
2024/01/30 09:15:29;;;;;;;12.50;6.27;;;8.00;99.90;;;;;;5072931;28;20375;-45
2024/01/30 09:17:55;;;;;;;16.00;7.03;;;8.10;99.90;;;;;;5073497;28;20052;-45
2024/01/30 09:20:22;;;;;;;12.50;6.67;;;8.10;99.90;;;;;;5055196;28;20048;-45
2024/01/30 09:22:49;;;;;;;13.52;6.78;;;8.20;99.90;;;;;;5074029;28;20525;-44
2024/01/30 09:25:14;;;;;;;12.90;6.50;;;8.20;99.90;;;;;;5076622;28;20051;-44
2024/01/30 09:27:40;;;;;;;12.00;5.80;;;8.20;99.90;;;;;;5076504;28;20425;-44
2024/01/30 09:30:07;;;;;;;12.93;6.30;;;8.30;99.90;;;;;;5058734;28;20045;-45
2024/01/30 09:32:32;;;;;;;;;;;8.30;99.90;;;;;;5077267;28;20045;-45
2024/01/30 09:34:58;;;;;;;13.32;6.63;;;8.30;99.90;;;;;;5058673;28;19994;-45
2024/01/30 09:37:24;;;;;;;15.17;7.30;;;8.40;99.90;;;;;;5076324;28;20143;-45
2024/01/30 09:39:49;;;;;;;12.57;6.13;;;8.40;99.90;;;;;;5076466;28;20055;-44
2024/01/30 09:42:28;;;;;;;12.67;6.30;;;8.50;99.90;;;;;;5076307;28;20114;-44
2024/01/30 09:44:54;;;;;;;12.43;6.32;;;8.50;99.90;;;;;;5076272;28;20040;-45
2024/01/30 09:47:20;;;;;;;12.35;6.30;;;8.60;99.90;;;;;;5076323;28;20084;-45
2024/01/30 09:49:46;;;;;;;13.63;6.10;;;8.60;99.90;;;;;;5076191;28;20082;-44
2024/01/30 09:52:12;;;;;;;10.50;6.53;;;8.60;99.90;;;;;;5058439;28;20050;-45
2024/01/30 09:54:38;;;;;;;11.32;5.85;;;8.70;99.90;;;;;;5075871;28;20045;-45
2024/01/30 09:57:04;;;;;;;16.17;7.28;;;8.80;99.90;;;;;;5058301;28;20368;-45
2024/01/30 09:59:31;;;;;;;14.98;6.60;;;8.80;99.90;;;;;;5057859;28;20452;-46
2024/01/30 10:01:57;;;;;;;12.70;6.30;;;8.80;99.90;;;;;;5058274;28;20052;-44
2024/01/30 10:04:23;;;;;;;10.93;6.43;;;8.80;99.90;;;;;;5075805;28;20057;-45
2024/01/30 10:06:50;;;;;;;15.77;6.93;;;8.90;99.90;;;;;;5075754;28;20048;-44
2024/01/30 10:09:16;;;;;;;14.43;6.93;;;8.90;99.90;;;;;;5075779;28;20054;-45
2024/01/30 10:11:41;;;;;;;12.53;6.63;;;8.90;99.90;;;;;;5075631;28;20399;-46
2024/01/30 10:14:07;;;;;;;11.80;6.60;;;9.00;99.90;;;;;;5075745;28;20128;-44
2024/01/30 10:16:34;;;;;;;13.30;6.43;;;9.00;99.90;;;;;;5075991;28;20075;-45
2024/01/30 10:19:00;;;;;;;10.85;6.57;;;9.00;99.90;;;;;;5075642;28;20102;-45
2024/01/30 10:21:26;;;;;;;12.43;6.83;;;9.00;99.90;;;;;;5075571;28;20044;-45
2024/01/30 10:23:52;;;;;;;10.77;6.00;;;9.00;99.90;;;;;;5075412;28;20285;-44
2024/01/30 10:26:18;;;;;;;14.85;7.43;;;9.10;99.90;;;;;;5075231;28;20123;-45
2024/01/30 10:28:44;;;;;;;15.93;7.70;;;9.10;99.90;;;;;;5075242;28;20376;-45
2024/01/30 10:31:09;;;;;;;15.93;6.50;;;9.20;99.90;;;;;;5076035;28;20048;-45
2024/01/30 10:33:35;;;;;;;15.73;7.13;;;9.20;99.90;;;;;;5075517;28;20048;-48
2024/01/30 10:36:03;;;;;;;11.70;6.37;;;9.30;99.90;;;;;;5057383;28;20049;-45
2024/01/30 10:38:29;;;;;;;13.63;7.10;;;9.30;99.90;;;;;;5075022;28;20052;-45
2024/01/30 10:40:56;;;;;;;;;;;9.40;99.90;;;;;;5075552;28;20053;-46
2024/01/30 10:43:22;;;;;;;12.75;6.57;;;9.40;99.90;;;;;;5057166;28;19920;-45
2024/01/30 10:45:49;;;;;;;12.23;6.53;;;9.50;99.90;;;;;;5075067;28;20040;-47
2024/01/30 10:48:18;;;;;;;12.95;6.78;;;9.60;99.90;;;;;;5074935;28;20506;-46
2024/01/30 10:50:45;;;;;;;12.18;6.05;;;9.60;99.90;;;;;;5074854;28;20044;-45
2024/01/30 10:53:12;;;;;;;14.18;7.53;;;9.60;99.90;;;;;;5057221;28;20044;-45
2024/01/30 10:55:39;;;;;;;12.85;6.60;;;9.70;99.90;;;;;;5074531;28;20544;-48
2024/01/30 10:58:05;;;;;;;14.88;6.43;;;9.70;99.90;;;;;;5074825;28;20054;-45
2024/01/30 11:00:33;;;;;;;12.87;6.47;;;9.80;99.90;;;;;;5074706;28;20399;-44
2024/01/30 11:02:58;;;;;;;14.70;7.15;;;9.80;99.90;;;;;;5056967;28;20602;-45
2024/01/30 11:05:28;;;;;;;14.87;7.10;;;9.90;99.90;;;;;;5074674;28;20067;-45
2024/01/30 11:07:53;;;;;;;11.60;6.20;;;9.90;99.90;;;;;;5074616;28;20080;-45
2024/01/30 11:10:19;;;;;;;11.87;6.70;;;9.90;99.90;;;;;;5074263;28;20466;-46
2024/01/30 11:12:46;;;;;;;10.93;6.10;;;9.90;99.90;;;;;;5074713;28;20048;-44
2024/01/30 11:15:14;;;;;;;14.48;7.25;;;9.90;99.90;;;;;;5074099;28;20060;-45
2024/01/30 11:18:00;;;;;;;13.15;6.80;;;9.90;99.90;;;;;;5074583;28;20463;-45
2024/01/30 11:20:29;;;;;;;12.60;6.85;;;10.00;99.90;;;;;;5073940;28;20219;-46
2024/01/30 11:22:57;;;;;;;10.77;6.20;;;10.00;99.90;;;;;;5074211;28;20123;-45
2024/01/30 11:25:23;;;;;;;13.27;6.45;;;10.00;99.90;;;;;;5056648;28;20041;-45
2024/01/30 11:27:50;;;;;;;;;;;10.00;99.90;;;;;;5075077;28;20380;-45
2024/01/30 11:30:26;;;;;;;13.38;6.53;;;10.00;99.90;;;;;;5074261;28;19967;-45
2024/01/30 11:33:28;;;;;;;9.77;5.70;;;10.00;99.90;;;;;;5056430;28;20052;-45
2024/01/30 11:35:53;;;;;;;12.00;5.78;;;10.00;99.90;;;;;;5025433;28;20053;-45
2024/01/30 11:38:19;;;;;;;11.82;5.20;;;10.00;99.90;;;;;;5074071;28;20055;-45
2024/01/30 11:40:47;;;;;;;10.47;4.60;;;10.10;99.90;;;;;;5074019;28;20048;-45
2024/01/30 11:43:13;;;;;;;10.45;4.47;;;10.10;99.90;;;;;;5056237;28;20087;-45
2024/01/30 11:45:39;;;;;;;11.60;4.50;;;10.10;99.90;;;;;;5073454;28;20087;-45
2024/01/30 11:48:05;;;;;;;8.07;3.80;;;10.10;99.90;;;;;;5073972;28;20127;-45
2024/01/30 11:50:35;;;;;;;8.40;3.50;;;10.10;99.90;;;;;;5074300;28;20048;-45
2024/01/30 11:53:01;;;;;;;8.73;3.75;;;10.10;99.90;;;;;;5073692;28;20593;-45
2024/01/30 11:55:30;;;;;;;8.07;3.33;;;10.00;99.90;;;;;;5074094;28;20091;-45
2024/01/30 11:57:58;;;;;;;7.38;2.85;;;10.00;99.90;;;;;;5073887;28;20055;-44
2024/01/30 12:00:24;;;;;;;8.45;2.85;;;10.00;99.90;;;;;;5073641;28;20049;-44
2024/01/30 12:02:57;;;;;;;11.50;3.88;;;10.00;99.90;;;;;;5073901;28;20085;-46
2024/01/30 12:05:24;;;;;;;7.25;2.55;;;10.00;99.90;;;;;;5074167;28;20083;-45
2024/01/30 12:07:50;;;;;;;6.72;2.88;;;9.90;99.90;;;;;;5073587;28;20451;-44
2024/01/30 12:10:15;;;;;;;7.17;2.97;;;9.90;99.90;;;;;;5073495;28;20110;-45
2024/01/30 12:12:44;;;;;;;9.53;2.77;;;9.90;99.90;;;;;;5055877;28;20387;-44
2024/01/30 12:15:10;;;;;;;8.25;2.50;;;9.90;99.90;;;;;;5073744;28;20297;-45
2024/01/30 12:17:36;;;;;;;;;;;9.90;99.90;;;;;;5073939;28;20100;-45
2024/01/30 12:20:09;;;;;;;6.95;1.90;;;9.90;99.90;;;;;;5073495;28;19924;-45
2024/01/30 12:22:41;;;;;;;6.85;2.20;;;9.80;99.90;;;;;;5073515;28;20048;-46
2024/01/30 12:25:10;;;;;;;4.45;1.45;;;9.70;99.90;;;;;;5073325;28;20055;-44
2024/01/30 12:27:36;;;;;;;3.25;1.05;;;9.70;99.90;;;;;;5073893;28;20135;-46
2024/01/30 12:30:06;;;;;;;3.83;1.52;;;9.70;99.90;;;;;;5073547;28;20491;-46
2024/01/30 12:32:35;;;;;;;2.38;0.82;;;9.70;99.90;;;;;;5073513;28;20045;-47
2024/01/30 12:35:01;;;;;;;4.18;0.98;;;9.70;99.90;;;;;;5073585;28;20044;-46
2024/01/30 12:37:27;;;;;;;2.85;0.82;;;9.70;99.90;;;;;;5073452;28;20040;-48
2024/01/30 12:39:55;;;;;;;4.03;0.63;;;9.60;99.90;;;;;;5073107;28;20048;-45
2024/01/30 12:42:22;;;;;;;1.92;0.93;;;9.60;99.90;;;;;;5073269;28;20052;-45